Time,TemperatureF,DewpointF,PressureIn,WindDirection,WindDirectionDegrees,WindSpeedMPH,WindSpeedGustMPH,Humidity,HourlyPrecipIn,Conditions,Clouds,dailyrainin,SoftwareType,DateUTC
2013-02-19 00:02:00,30.4,26.7,29.53,West,270,0.0,0.0,86,0.00,,,0.00,WUHU21023XXSP,2013-02-19 06:02:00,
2013-02-19 00:08:00,29.5,26.2,29.53,West,270,0.0,0.0,86,0.00,,,0.00,WUHU21023XXSP,2013-02-19 06:08:00,
2013-02-19 00:15:00,28.9,25.4,29.52,NW,315,0.0,0.0,86,0.00,,,0.00,WUHU21023XXSP,2013-02-19 06:15:00,
2013-02-19 00:21:00,28.6,24.6,29.53,WNW,292,0.0,0.0,85,0.00,,,0.00,WUHU21023XXSP,2013-02-19 06:21:00,
2013-02-19 00:27:00,28.0,24.1,29.54,NW,315,0.0,0.0,85,0.00,,,0.00,WUHU21023XXSP,2013-02-19 06:27:00,
2013-02-19 00:34:00,27.5,23.5,29.54,NW,315,0.0,0.0,85,0.00,,,0.00,WUHU21023XXSP,2013-02-19 06:34:00,
2013-02-19 00:40:00,27.1,22.9,29.55,WNW,292,0.0,0.0,84,0.00,,,0.00,WUHU21023XXSP,2013-02-19 06:40:00,
2013-02-19 00:47:00,26.6,22.4,29.54,NW,315,0.0,0.0,84,0.00,,,0.00,WUHU21023XXSP,2013-02-19 06:47:00,
2013-02-19 00:53:00,26.2,22.0,29.55,West,270,0.0,0.0,84,0.00,,,0.00,WUHU21023XXSP,2013-02-19 06:53:00,
2013-02-19 01:00:00,25.7,21.5,29.55,WNW,292,0.0,0.0,84,0.00,,,0.00,WUHU21023XXSP,2013-02-19 07:00:00,
2013-02-19 01:06:00,25.5,21.1,29.55,WNW,292,0.0,0.0,83,0.00,,,0.00,WUHU21023XXSP,2013-02-19 07:06:00,
2013-02-19 01:12:00,25.2,20.7,29.56,SW,225,0.0,0.0,83,0.00,,,0.00,WUHU21023XXSP,2013-02-19 07:12:00,
2013-02-19 01:19:00,25.0,20.6,29.56,NW,315,0.0,0.0,83,0.00,,,0.00,WUHU21023XXSP,2013-02-19 07:19:00,
2013-02-19 01:25:00,24.6,20.2,29.57,West,270,0.0,0.0,83,0.00,,,0.00,WUHU21023XXSP,2013-02-19 07:25:00,
2013-02-19 01:32:00,24.4,20.0,29.57,North,0,0.0,0.0,83,0.00,,,0.00,WUHU21023XXSP,2013-02-19 07:32:00,
2013-02-19 01:38:00,23.9,19.5,29.58,SW,225,0.0,0.0,83,0.00,,,0.00,WUHU21023XXSP,2013-02-19 07:38:00,
2013-02-19 01:45:00,23.5,19.1,29.58,West,270,0.0,0.0,83,0.00,,,0.00,WUHU21023XXSP,2013-02-19 07:45:00,
2013-02-19 01:51:00,23.4,18.7,29.58,WSW,247,0.0,0.0,82,0.00,,,0.00,WUHU21023XXSP,2013-02-19 07:51:00,
2013-02-19 01:57:00,23.0,18.5,29.59,NW,315,0.0,0.0,82,0.00,,,0.00,WUHU21023XXSP,2013-02-19 07:57:00,
2013-02-19 02:04:00,22.8,18.1,29.59,West,270,0.0,0.0,82,0.00,,,0.00,WUHU21023XXSP,2013-02-19 08:04:00,
2013-02-19 02:10:00,22.6,18.0,29.59,WSW,247,0.0,0.0,82,0.00,,,0.00,WUHU21023XXSP,2013-02-19 08:10:00,
2013-02-19 02:17:00,22.3,17.6,29.60,WNW,292,0.0,0.0,82,0.00,,,0.00,WUHU21023XXSP,2013-02-19 08:17:00,
2013-02-19 02:23:00,22.1,17.4,29.60,WNW,292,0.0,0.0,82,0.00,,,0.00,WUHU21023XXSP,2013-02-19 08:23:00,
2013-02-19 02:30:00,21.9,17.2,29.60,WSW,247,0.0,0.0,82,0.00,,,0.00,WUHU21023XXSP,2013-02-19 08:30:00,
2013-02-19 02:36:00,21.4,16.7,29.60,WNW,292,0.0,0.0,82,0.00,,,0.00,WUHU21023XXSP,2013-02-19 08:36:00,
2013-02-19 02:42:00,21.0,16.3,29.61,NW,315,0.0,0.0,82,0.00,,,0.00,WUHU21023XXSP,2013-02-19 08:42:00,
2013-02-19 02:49:00,20.8,16.2,29.61,West,270,0.0,0.0,82,0.00,,,0.00,WUHU21023XXSP,2013-02-19 08:49:00,
2013-02-19 02:55:00,20.5,15.8,29.61,SW,225,0.0,0.0,82,0.00,,,0.00,WUHU21023XXSP,2013-02-19 08:55:00,
2013-02-19 03:02:00,20.3,15.6,29.61,WNW,292,0.0,0.0,82,0.00,,,0.00,WUHU21023XXSP,2013-02-19 09:02:00,
2013-02-19 03:08:00,20.1,15.7,29.62,WSW,247,0.0,0.0,83,0.00,,,0.00,WUHU21023XXSP,2013-02-19 09:08:00,
2013-02-19 03:15:00,19.8,15.5,29.62,NW,315,0.0,0.0,83,0.00,,,0.00,WUHU21023XXSP,2013-02-19 09:15:00,
2013-02-19 03:21:00,19.6,15.2,29.62,NW,315,0.0,0.0,83,0.00,,,0.00,WUHU21023XXSP,2013-02-19 09:21:00,
2013-02-19 03:27:00,19.2,14.8,29.62,SSW,202,0.0,0.0,83,0.00,,,0.00,WUHU21023XXSP,2013-02-19 09:27:00,
2013-02-19 03:34:00,19.0,14.6,29.62,NW,315,0.0,0.0,83,0.00,,,0.00,WUHU21023XXSP,2013-02-19 09:34:00,
2013-02-19 03:40:00,18.7,14.3,29.62,NW,315,0.0,0.0,83,0.00,,,0.00,WUHU21023XXSP,2013-02-19 09:40:00,
2013-02-19 03:47:00,18.3,13.9,29.62,WNW,292,0.0,0.0,83,0.00,,,0.00,WUHU21023XXSP,2013-02-19 09:47:00,
2013-02-19 03:53:00,18.3,13.9,29.63,West,270,0.0,0.0,83,0.00,,,0.00,WUHU21023XXSP,2013-02-19 09:53:00,
2013-02-19 03:59:00,18.1,13.5,29.64,WSW,247,0.0,0.0,82,0.00,,,0.00,WUHU21023XXSP,2013-02-19 09:59:00,
2013-02-19 04:06:00,18.0,13.3,29.64,WNW,292,0.0,0.0,82,0.00,,,0.00,WUHU21023XXSP,2013-02-19 10:06:00,
2013-02-19 04:12:00,17.8,13.1,29.64,WNW,292,0.0,0.0,82,0.00,,,0.00,WUHU21023XXSP,2013-02-19 10:12:00,
2013-02-19 04:19:00,17.8,13.1,29.64,West,270,0.0,0.0,82,0.00,,,0.00,WUHU21023XXSP,2013-02-19 10:19:00,
2013-02-19 04:25:00,17.4,13.0,29.64,WSW,247,0.0,0.0,83,0.00,,,0.00,WUHU21023XXSP,2013-02-19 10:25:00,
2013-02-19 04:32:00,17.2,12.8,29.64,WSW,247,0.0,0.0,83,0.00,,,0.00,WUHU21023XXSP,2013-02-19 10:32:00,
2013-02-19 04:38:00,17.1,12.4,29.65,South,180,0.0,0.0,82,0.00,,,0.00,WUHU21023XXSP,2013-02-19 10:38:00,
2013-02-19 04:44:00,16.7,12.1,29.65,South,180,0.0,0.0,82,0.00,,,0.00,WUHU21023XXSP,2013-02-19 10:44:00,
2013-02-19 04:51:00,16.5,11.9,29.65,West,270,0.0,0.0,82,0.00,,,0.00,WUHU21023XXSP,2013-02-19 10:51:00,
2013-02-19 04:57:00,16.3,12.0,29.65,WNW,292,0.0,0.0,83,0.00,,,0.00,WUHU21023XXSP,2013-02-19 10:57:00,
2013-02-19 05:04:00,16.2,11.6,29.66,West,270,0.0,0.0,82,0.00,,,0.00,WUHU21023XXSP,2013-02-19 11:04:00,
2013-02-19 05:10:00,16.0,11.7,29.66,West,270,0.0,0.0,83,0.00,,,0.00,WUHU21023XXSP,2013-02-19 11:10:00,
2013-02-19 05:17:00,15.8,11.3,29.66,West,270,0.0,0.0,82,0.00,,,0.00,WUHU21023XXSP,2013-02-19 11:17:00,
2013-02-19 05:23:00,15.6,11.1,29.67,SSW,202,0.0,0.0,82,0.00,,,0.00,WUHU21023XXSP,2013-02-19 11:23:00,
2013-02-19 05:29:00,15.3,10.7,29.67,WNW,292,0.0,0.0,82,0.00,,,0.00,WUHU21023XXSP,2013-02-19 11:29:00,
2013-02-19 05:36:00,15.1,10.5,29.67,NW,315,0.0,0.0,82,0.00,,,0.00,WUHU21023XXSP,2013-02-19 11:36:00,
2013-02-19 05:42:00,14.9,10.4,29.67,WNW,292,0.0,0.0,82,0.00,,,0.00,WUHU21023XXSP,2013-02-19 11:42:00,
2013-02-19 05:49:00,14.7,10.2,29.68,West,270,0.0,0.0,82,0.00,,,0.00,WUHU21023XXSP,2013-02-19 11:49:00,
2013-02-19 05:55:00,14.7,10.2,29.68,NW,315,0.0,0.0,82,0.00,,,0.00,WUHU21023XXSP,2013-02-19 11:55:00,
2013-02-19 06:02:00,14.5,10.0,29.68,SW,225,0.0,0.0,82,0.00,,,0.00,WUHU21023XXSP,2013-02-19 12:02:00,
2013-02-19 06:08:00,14.2,9.7,29.68,NW,315,0.0,0.0,82,0.00,,,0.00,WUHU21023XXSP,2013-02-19 12:08:00,
2013-02-19 06:14:00,14.2,9.7,29.68,West,270,0.0,0.0,82,0.00,,,0.00,WUHU21023XXSP,2013-02-19 12:14:00,
2013-02-19 06:21:00,14.2,9.7,29.69,NW,315,0.0,0.0,82,0.00,,,0.00,WUHU21023XXSP,2013-02-19 12:21:00,
2013-02-19 06:27:00,13.8,9.3,29.69,West,270,0.0,0.0,82,0.00,,,0.00,WUHU21023XXSP,2013-02-19 12:27:00,
2013-02-19 06:34:00,13.8,9.3,29.69,NW,315,0.0,0.0,82,0.00,,,0.00,WUHU21023XXSP,2013-02-19 12:34:00,
2013-02-19 06:40:00,13.8,9.3,29.70,West,270,0.0,0.0,82,0.00,,,0.00,WUHU21023XXSP,2013-02-19 12:40:00,
2013-02-19 06:47:00,13.6,9.1,29.70,WNW,292,0.0,0.0,82,0.00,,,0.00,WUHU21023XXSP,2013-02-19 12:47:00,
2013-02-19 06:53:00,13.6,9.1,29.70,West,270,0.0,0.0,82,0.00,,,0.00,WUHU21023XXSP,2013-02-19 12:53:00,
2013-02-19 06:59:00,13.3,8.8,29.70,NW,315,0.0,0.0,82,0.00,,,0.00,WUHU21023XXSP,2013-02-19 12:59:00,
2013-02-19 07:06:00,13.3,8.8,29.71,West,270,0.0,0.0,82,0.00,,,0.00,WUHU21023XXSP,2013-02-19 13:06:00,
2013-02-19 07:12:00,13.3,8.8,29.72,West,270,0.0,0.0,82,0.00,,,0.00,WUHU21023XXSP,2013-02-19 13:12:00,
2013-02-19 07:19:00,13.3,8.8,29.72,WNW,292,0.0,0.0,82,0.00,,,0.00,WUHU21023XXSP,2013-02-19 13:19:00,
2013-02-19 07:25:00,13.1,8.6,29.72,West,270,0.0,0.0,82,0.00,,,0.00,WUHU21023XXSP,2013-02-19 13:25:00,
2013-02-19 07:32:00,13.1,8.6,29.72,West,270,0.0,0.0,82,0.00,,,0.00,WUHU21023XXSP,2013-02-19 13:32:00,
2013-02-19 07:38:00,13.1,8.6,29.72,WNW,292,0.0,0.0,82,0.00,,,0.00,WUHU21023XXSP,2013-02-19 13:38:00,
2013-02-19 07:44:00,13.1,8.6,29.73,West,270,0.0,0.0,82,0.00,,,0.00,WUHU21023XXSP,2013-02-19 13:44:00,
2013-02-19 07:51:00,13.3,8.8,29.73,WNW,292,0.0,0.0,82,0.00,,,0.00,WUHU21023XXSP,2013-02-19 13:51:00,
2013-02-19 07:57:00,13.3,8.5,29.74,West,270,0.0,0.0,81,0.00,,,0.00,WUHU21023XXSP,2013-02-19 13:57:00,
2013-02-19 08:04:00,13.3,8.8,29.74,NW,315,0.0,0.0,82,0.00,,,0.00,WUHU21023XXSP,2013-02-19 14:04:00,
2013-02-19 08:10:00,13.3,8.5,29.74,NW,315,0.0,0.0,81,0.00,,,0.00,WUHU21023XXSP,2013-02-19 14:10:00,
2013-02-19 08:16:00,13.3,8.5,29.75,West,270,0.0,0.0,81,0.00,,,0.00,WUHU21023XXSP,2013-02-19 14:16:00,
2013-02-19 08:23:00,13.3,8.5,29.75,WSW,247,0.0,0.0,81,0.00,,,0.00,WUHU21023XXSP,2013-02-19 14:23:00,
2013-02-19 08:29:00,13.3,8.2,29.75,West,270,0.0,0.0,80,0.00,,,0.00,WUHU21023XXSP,2013-02-19 14:29:00,
2013-02-19 08:36:00,13.3,8.2,29.75,WNW,292,0.0,0.0,80,0.00,,,0.00,WUHU21023XXSP,2013-02-19 14:36:00,
2013-02-19 08:42:00,13.8,9.1,29.76,West,270,0.0,0.0,81,0.00,,,0.00,WUHU21023XXSP,2013-02-19 14:42:00,
2013-02-19 08:49:00,14.2,9.4,29.76,NW,315,0.0,0.0,81,0.00,,,0.00,WUHU21023XXSP,2013-02-19 14:49:00,
2013-02-19 08:55:00,14.2,9.1,29.76,West,270,0.0,0.0,80,0.00,,,0.00,WUHU21023XXSP,2013-02-19 14:55:00,
2013-02-19 09:01:00,14.2,8.8,29.76,West,270,0.0,0.0,79,0.00,,,0.00,WUHU21023XXSP,2013-02-19 15:01:00,
2013-02-19 09:08:00,14.2,8.8,29.77,WNW,292,0.0,0.0,79,0.00,,,0.00,WUHU21023XXSP,2013-02-19 15:08:00,
2013-02-19 09:14:00,14.5,9.0,29.77,NW,315,0.0,0.0,79,0.00,,,0.00,WUHU21023XXSP,2013-02-19 15:14:00,
2013-02-19 09:21:00,14.5,9.2,29.77,NW,315,0.0,0.0,79,0.00,,,0.00,WUHU21023XXSP,2013-02-19 15:21:00,
2013-02-19 09:27:00,14.2,8.5,29.77,NW,315,0.0,0.0,78,0.00,,,0.00,WUHU21023XXSP,2013-02-19 15:27:00,
2013-02-19 09:34:00,14.2,8.5,29.77,WNW,292,0.0,0.0,78,0.00,,,0.00,WUHU21023XXSP,2013-02-19 15:34:00,
2013-02-19 09:40:00,14.2,8.8,29.78,WNW,292,0.0,0.0,79,0.00,,,0.00,WUHU21023XXSP,2013-02-19 15:40:00,
2013-02-19 09:47:00,14.4,9.0,29.78,WNW,292,0.0,0.0,79,0.00,,,0.00,WUHU21023XXSP,2013-02-19 15:47:00,
2013-02-19 09:53:00,14.7,9.4,29.79,WNW,292,0.0,0.0,79,0.00,,,0.00,WUHU21023XXSP,2013-02-19 15:53:00,
2013-02-19 09:59:00,14.9,9.6,29.79,NW,315,0.0,0.0,79,0.00,,,0.00,WUHU21023XXSP,2013-02-19 15:59:00,
2013-02-19 10:06:00,14.9,9.3,29.79,NW,315,0.0,0.0,78,0.00,,,0.00,WUHU21023XXSP,2013-02-19 16:06:00,
2013-02-19 10:12:00,14.7,9.1,29.79,NW,315,0.0,0.0,78,0.00,,,0.00,WUHU21023XXSP,2013-02-19 16:12:00,
2013-02-19 10:19:00,14.9,9.3,29.80,West,270,0.0,0.0,78,0.00,,,0.00,WUHU21023XXSP,2013-02-19 16:19:00,
2013-02-19 10:25:00,14.9,9.3,29.81,WNW,292,0.0,0.0,78,0.00,,,0.00,WUHU21023XXSP,2013-02-19 16:25:00,
2013-02-19 10:32:00,14.7,8.8,29.81,West,270,0.0,0.0,77,0.00,,,0.00,WUHU21023XXSP,2013-02-19 16:32:00,
2013-02-19 10:38:00,14.9,9.0,29.81,NW,315,0.0,0.0,77,0.00,,,0.00,WUHU21023XXSP,2013-02-19 16:38:00,
2013-02-19 10:44:00,14.9,9.0,29.81,NW,315,0.0,0.0,77,0.00,,,0.00,WUHU21023XXSP,2013-02-19 16:44:00,
2013-02-19 10:51:00,15.1,8.8,29.82,WNW,292,0.0,0.0,76,0.00,,,0.00,WUHU21023XXSP,2013-02-19 16:51:00,
2013-02-19 10:57:00,15.3,9.0,29.82,WNW,292,0.0,0.0,76,0.00,,,0.00,WUHU21023XXSP,2013-02-19 16:57:00,
2013-02-19 11:04:00,15.4,9.2,29.82,WNW,292,0.0,0.0,76,0.00,,,0.00,WUHU21023XXSP,2013-02-19 17:04:00,
2013-02-19 11:10:00,15.3,8.7,29.83,NW,315,0.0,0.0,75,0.00,,,0.00,WUHU21023XXSP,2013-02-19 17:10:00,
2013-02-19 11:16:00,15.3,8.4,29.83,NW,315,0.0,0.0,74,0.00,,,0.00,WUHU21023XXSP,2013-02-19 17:16:00,
2013-02-19 11:23:00,15.6,8.7,29.83,NW,315,0.0,0.0,74,0.00,,,0.00,WUHU21023XXSP,2013-02-19 17:23:00,
2013-02-19 11:29:00,15.8,8.9,29.83,WNW,292,0.0,0.0,74,0.00,,,0.00,WUHU21023XXSP,2013-02-19 17:29:00,
2013-02-19 11:36:00,15.8,8.9,29.84,NW,315,0.0,0.0,74,0.00,,,0.00,WUHU21023XXSP,2013-02-19 17:36:00,
2013-02-19 11:42:00,15.6,8.7,29.84,WNW,292,0.0,0.0,74,0.00,,,0.00,WUHU21023XXSP,2013-02-19 17:42:00,
2013-02-19 11:49:00,15.4,8.6,29.84,WNW,292,0.0,0.0,74,0.00,,,0.00,WUHU21023XXSP,2013-02-19 17:49:00,
2013-02-19 11:55:00,15.3,8.4,29.84,WNW,292,0.0,0.0,74,0.00,,,0.00,WUHU21023XXSP,2013-02-19 17:55:00,
2013-02-19 12:02:00,15.3,8.4,29.85,NW,315,0.0,0.0,74,0.00,,,0.00,WUHU21023XXSP,2013-02-19 18:02:00,
2013-02-19 12:08:00,15.4,8.6,29.84,WNW,292,0.0,0.0,74,0.00,,,0.00,WUHU21023XXSP,2013-02-19 18:08:00,
2013-02-19 12:14:00,15.6,8.7,29.85,WNW,292,0.0,0.0,74,0.00,,,0.00,WUHU21023XXSP,2013-02-19 18:14:00,
2013-02-19 12:21:00,15.4,8.9,29.85,WNW,292,0.0,0.0,75,0.00,,,0.00,WUHU21023XXSP,2013-02-19 18:21:00,
2013-02-19 12:27:00,15.8,8.9,29.84,NNW,337,0.0,0.0,74,0.00,,,0.00,WUHU21023XXSP,2013-02-19 18:27:00,
2013-02-19 12:34:00,15.8,8.3,29.85,WNW,292,0.0,0.0,72,0.00,,,0.00,WUHU21023XXSP,2013-02-19 18:34:00,
2013-02-19 12:40:00,16.0,8.5,29.85,West,270,0.0,0.0,72,0.00,,,0.00,WUHU21023XXSP,2013-02-19 18:40:00,
2013-02-19 12:47:00,15.6,8.1,29.85,West,270,0.0,0.0,72,0.00,,,0.00,WUHU21023XXSP,2013-02-19 18:47:00,
2013-02-19 12:53:00,15.6,8.1,29.85,WNW,292,0.0,0.0,72,0.00,,,0.00,WUHU21023XXSP,2013-02-19 18:53:00,
2013-02-19 12:59:00,15.6,8.1,29.86,NNW,337,0.0,0.0,72,0.00,,,0.00,WUHU21023XXSP,2013-02-19 18:59:00,
2013-02-19 13:06:00,15.6,7.8,29.86,West,270,0.0,0.0,71,0.00,,,0.00,WUHU21023XXSP,2013-02-19 19:06:00,
2013-02-19 13:12:00,15.6,7.8,29.86,West,270,0.0,0.0,71,0.00,,,0.00,WUHU21023XXSP,2013-02-19 19:12:00,
2013-02-19 13:19:00,15.6,7.8,29.86,WNW,292,0.0,0.0,71,0.00,,,0.00,WUHU21023XXSP,2013-02-19 19:19:00,
2013-02-19 13:25:00,15.8,8.3,29.86,WNW,292,0.0,0.0,72,0.00,,,0.00,WUHU21023XXSP,2013-02-19 19:25:00,
2013-02-19 13:31:00,16.0,8.2,29.87,NW,315,0.0,0.0,71,0.00,,,0.00,WUHU21023XXSP,2013-02-19 19:31:00,
2013-02-19 13:38:00,16.0,8.2,29.87,West,270,0.0,0.0,71,0.00,,,0.00,WUHU21023XXSP,2013-02-19 19:38:00,
2013-02-19 13:44:00,15.6,7.8,29.87,West,270,0.0,0.0,71,0.00,,,0.00,WUHU21023XXSP,2013-02-19 19:44:00,
2013-02-19 13:51:00,15.6,7.5,29.88,WNW,292,0.0,0.0,70,0.00,,,0.00,WUHU21023XXSP,2013-02-19 19:51:00,
2013-02-19 13:57:00,15.6,7.8,29.88,NW,315,0.0,0.0,71,0.00,,,0.00,WUHU21023XXSP,2013-02-19 19:57:00,
2013-02-19 14:04:00,16.0,8.5,29.89,NW,315,0.0,0.0,72,0.00,,,0.00,WUHU21023XXSP,2013-02-19 20:04:00,
2013-02-19 14:10:00,16.5,8.7,29.89,WNW,292,0.0,0.0,71,0.00,,,0.00,WUHU21023XXSP,2013-02-19 20:10:00,
2013-02-19 14:16:00,16.7,8.3,29.90,NW,315,0.0,0.0,69,0.00,,,0.00,WUHU21023XXSP,2013-02-19 20:16:00,
2013-02-19 14:23:00,16.3,7.9,29.90,NW,315,0.0,0.0,69,0.00,,,0.00,WUHU21023XXSP,2013-02-19 20:23:00,
2013-02-19 14:29:00,16.0,7.5,29.91,WNW,292,0.0,0.0,69,0.00,,,0.00,WUHU21023XXSP,2013-02-19 20:29:00,
2013-02-19 14:36:00,15.6,7.2,29.91,NW,315,0.0,0.0,69,0.00,,,0.00,WUHU21023XXSP,2013-02-19 20:36:00,
2013-02-19 14:42:00,15.6,7.2,29.92,NNW,337,0.0,0.0,69,0.00,,,0.00,WUHU21023XXSP,2013-02-19 20:42:00,
2013-02-19 14:49:00,15.6,7.2,29.92,NW,315,0.0,0.0,69,0.00,,,0.00,WUHU21023XXSP,2013-02-19 20:49:00,
2013-02-19 14:55:00,15.4,7.0,29.93,WNW,292,0.0,0.0,69,0.00,,,0.00,WUHU21023XXSP,2013-02-19 20:55:00,
2013-02-19 15:01:00,15.4,7.0,29.93,WNW,292,0.0,0.0,69,0.00,,,0.00,WUHU21023XXSP,2013-02-19 21:01:00,
2013-02-19 15:08:00,15.1,6.7,29.93,WNW,292,0.0,0.0,69,0.00,,,0.00,WUHU21023XXSP,2013-02-19 21:08:00,
2013-02-19 15:14:00,14.9,6.2,29.93,NNW,337,0.0,0.0,68,0.00,,,0.00,WUHU21023XXSP,2013-02-19 21:14:00,
2013-02-19 15:21:00,14.9,6.5,29.94,WNW,292,0.0,0.0,69,0.00,,,0.00,WUHU21023XXSP,2013-02-19 21:21:00,
2013-02-19 15:27:00,14.9,6.9,29.95,NW,315,0.0,0.0,70,0.00,,,0.00,WUHU21023XXSP,2013-02-19 21:27:00,
2013-02-19 15:34:00,14.7,6.4,29.95,WNW,292,0.0,0.0,69,0.00,,,0.00,WUHU21023XXSP,2013-02-19 21:34:00,
2013-02-19 15:40:00,14.4,6.1,29.95,NNW,337,0.0,0.0,69,0.00,,,0.00,WUHU21023XXSP,2013-02-19 21:40:00,
2013-02-19 15:46:00,14.2,5.9,29.96,WNW,292,0.0,0.0,69,0.00,,,0.00,WUHU21023XXSP,2013-02-19 21:46:00,
2013-02-19 15:53:00,14.2,6.2,29.97,WNW,292,0.0,0.0,70,0.00,,,0.00,WUHU21023XXSP,2013-02-19 21:53:00,
2013-02-19 15:59:00,14.2,6.2,29.98,NW,315,0.0,0.0,70,0.00,,,0.00,WUHU21023XXSP,2013-02-19 21:59:00,
2013-02-19 16:06:00,13.8,5.9,29.98,WNW,292,0.0,0.0,70,0.00,,,0.00,WUHU21023XXSP,2013-02-19 22:06:00,
2013-02-19 16:12:00,13.8,5.6,29.98,NW,315,0.0,0.0,69,0.00,,,0.00,WUHU21023XXSP,2013-02-19 22:12:00,
2013-02-19 16:18:00,13.8,5.6,29.99,WNW,292,0.0,0.0,69,0.00,,,0.00,WUHU21023XXSP,2013-02-19 22:18:00,
2013-02-19 16:25:00,13.6,5.7,29.99,WNW,292,0.0,0.0,70,0.00,,,0.00,WUHU21023XXSP,2013-02-19 22:25:00,
2013-02-19 16:31:00,13.6,5.7,29.99,NW,315,0.0,0.0,70,0.00,,,0.00,WUHU21023XXSP,2013-02-19 22:31:00,
2013-02-19 16:38:00,13.6,5.7,29.99,NNW,337,0.0,0.0,70,0.00,,,0.00,WUHU21023XXSP,2013-02-19 22:38:00,
2013-02-19 16:44:00,13.6,5.7,30.00,WNW,292,0.0,0.0,70,0.00,,,0.00,WUHU21023XXSP,2013-02-19 22:44:00,
2013-02-19 16:51:00,13.6,6.0,30.00,West,270,0.0,0.0,71,0.00,,,0.00,WUHU21023XXSP,2013-02-19 22:51:00,
2013-02-19 16:57:00,13.3,5.6,30.00,NW,315,0.0,0.0,71,0.00,,,0.00,WUHU21023XXSP,2013-02-19 22:57:00,
2013-02-19 17:03:00,13.3,5.6,30.00,WNW,292,0.0,0.0,71,0.00,,,0.00,WUHU21023XXSP,2013-02-19 23:03:00,
2013-02-19 17:10:00,13.3,5.6,30.00,NW,315,0.0,0.0,71,0.00,,,0.00,WUHU21023XXSP,2013-02-19 23:10:00,
2013-02-19 17:16:00,13.1,5.5,30.01,WNW,292,0.0,0.0,71,0.00,,,0.00,WUHU21023XXSP,2013-02-19 23:16:00,
2013-02-19 17:23:00,12.7,5.1,30.02,NW,315,0.0,0.0,71,0.00,,,0.00,WUHU21023XXSP,2013-02-19 23:23:00,
2013-02-19 17:29:00,12.7,5.1,30.02,NW,315,0.0,0.0,71,0.00,,,0.00,WUHU21023XXSP,2013-02-19 23:29:00,
2013-02-19 17:36:00,12.4,4.7,30.03,West,270,0.0,0.0,71,0.00,,,0.00,WUHU21023XXSP,2013-02-19 23:36:00,
2013-02-19 17:42:00,12.2,4.6,30.03,West,270,0.0,0.0,71,0.00,,,0.00,WUHU21023XXSP,2013-02-19 23:42:00,
2013-02-19 17:48:00,12.0,4.4,30.03,WNW,292,0.0,0.0,71,0.00,,,0.00,WUHU21023XXSP,2013-02-19 23:48:00,
2013-02-19 17:55:00,12.0,4.4,30.03,WNW,292,0.0,0.0,71,0.00,,,0.00,WUHU21023XXSP,2013-02-19 23:55:00,
2013-02-19 18:01:00,11.8,4.2,30.03,WNW,292,0.0,0.0,71,0.00,,,0.00,WUHU21023XXSP,2013-02-20 00:01:00,
2013-02-19 18:08:00,11.7,4.0,30.04,NW,315,0.0,0.0,71,0.00,,,0.00,WUHU21023XXSP,2013-02-20 00:08:00,
2013-02-19 18:14:00,11.7,4.0,30.05,West,270,0.0,0.0,71,0.00,,,0.00,WUHU21023XXSP,2013-02-20 00:14:00,
2013-02-19 18:21:00,11.7,4.0,30.05,West,270,0.0,0.0,71,0.00,,,0.00,WUHU21023XXSP,2013-02-20 00:21:00,
2013-02-19 18:27:00,11.5,3.8,30.05,WNW,292,0.0,0.0,71,0.00,,,0.00,WUHU21023XXSP,2013-02-20 00:27:00,
2013-02-19 18:33:00,11.5,4.1,30.05,NW,315,0.0,0.0,72,0.00,,,0.00,WUHU21023XXSP,2013-02-20 00:33:00,
2013-02-19 18:40:00,11.5,4.1,30.05,WNW,292,0.0,0.0,72,0.00,,,0.00,WUHU21023XXSP,2013-02-20 00:40:00,
2013-02-19 18:46:00,11.5,4.1,30.06,WNW,292,0.0,0.0,72,0.00,,,0.00,WUHU21023XXSP,2013-02-20 00:46:00,
2013-02-19 18:53:00,11.7,4.3,30.07,WNW,292,0.0,0.0,72,0.00,,,0.00,WUHU21023XXSP,2013-02-20 00:53:00,
2013-02-19 18:59:00,11.7,4.3,30.07,NW,315,0.0,0.0,72,0.00,,,0.00,WUHU21023XXSP,2013-02-20 00:59:00,
2013-02-19 19:06:00,11.8,4.5,30.07,NNW,337,0.0,0.0,72,0.00,,,0.00,WUHU21023XXSP,2013-02-20 01:06:00,
2013-02-19 19:12:00,11.8,4.5,30.08,WNW,292,0.0,0.0,72,0.00,,,0.00,WUHU21023XXSP,2013-02-20 01:12:00,
2013-02-19 19:18:00,12.0,4.7,30.08,WNW,292,0.0,0.0,72,0.00,,,0.00,WUHU21023XXSP,2013-02-20 01:18:00,
2013-02-19 19:25:00,12.0,4.7,30.08,WNW,292,0.0,0.0,72,0.00,,,0.00,WUHU21023XXSP,2013-02-20 01:25:00,
2013-02-19 19:31:00,12.0,4.4,30.08,WNW,292,0.0,0.0,71,0.00,,,0.00,WUHU21023XXSP,2013-02-20 01:31:00,
2013-02-19 19:38:00,11.8,4.2,30.09,WNW,292,0.0,0.0,71,0.00,,,0.00,WUHU21023XXSP,2013-02-20 01:38:00,
2013-02-19 19:44:00,11.7,4.0,30.09,NW,315,0.0,0.0,71,0.00,,,0.00,WUHU21023XXSP,2013-02-20 01:44:00,
2013-02-19 19:51:00,11.5,3.6,30.10,NW,315,0.0,0.0,70,0.00,,,0.00,WUHU21023XXSP,2013-02-20 01:51:00,
2013-02-19 19:57:00,11.3,3.4,30.11,NW,315,0.0,0.0,70,0.00,,,0.00,WUHU21023XXSP,2013-02-20 01:57:00,
2013-02-19 20:03:00,10.9,3.0,30.11,NW,315,0.0,0.0,70,0.00,,,0.00,WUHU21023XXSP,2013-02-20 02:03:00,
2013-02-19 20:10:00,10.8,2.5,30.11,NW,315,0.0,0.0,69,0.00,,,0.00,WUHU21023XXSP,2013-02-20 02:10:00,
2013-02-19 20:16:00,10.6,2.3,30.12,WNW,292,0.0,0.0,69,0.00,,,0.00,WUHU21023XXSP,2013-02-20 02:16:00,
2013-02-19 20:23:00,10.2,2.3,30.12,NW,315,0.0,0.0,70,0.00,,,0.00,WUHU21023XXSP,2013-02-20 02:23:00,
2013-02-19 20:29:00,10.0,1.8,30.12,West,270,0.0,0.0,69,0.00,,,0.00,WUHU21023XXSP,2013-02-20 02:29:00,
2013-02-19 20:36:00,9.7,1.8,30.13,West,270,0.0,0.0,70,0.00,,,0.00,WUHU21023XXSP,2013-02-20 02:36:00,
2013-02-19 20:42:00,9.7,1.8,30.13,NNW,337,0.0,0.0,70,0.00,,,0.00,WUHU21023XXSP,2013-02-20 02:42:00,
2013-02-19 20:48:00,9.7,1.8,30.13,West,270,0.0,0.0,70,0.00,,,0.00,WUHU21023XXSP,2013-02-20 02:48:00,
2013-02-19 20:55:00,9.3,1.5,30.13,NW,315,0.0,0.0,70,0.00,,,0.00,WUHU21023XXSP,2013-02-20 02:55:00,
2013-02-19 21:01:00,9.3,1.5,30.13,WNW,292,0.0,0.0,70,0.00,,,0.00,WUHU21023XXSP,2013-02-20 03:01:00,
2013-02-19 21:08:00,9.1,1.3,30.14,WNW,292,0.0,0.0,70,0.00,,,0.00,WUHU21023XXSP,2013-02-20 03:08:00,
2013-02-19 21:14:00,9.1,1.3,30.14,NW,315,0.0,0.0,70,0.00,,,0.00,WUHU21023XXSP,2013-02-20 03:14:00,
2013-02-19 21:20:00,9.0,1.2,30.14,NW,315,0.0,0.0,70,0.00,,,0.00,WUHU21023XXSP,2013-02-20 03:20:00,
2013-02-19 21:27:00,9.0,1.2,30.15,NW,315,0.0,0.0,70,0.00,,,0.00,WUHU21023XXSP,2013-02-20 03:27:00,
2013-02-19 21:33:00,8.8,1.0,30.14,WNW,292,0.0,0.0,70,0.00,,,0.00,WUHU21023XXSP,2013-02-20 03:33:00,
2013-02-19 21:40:00,8.8,1.0,30.14,NW,315,0.0,0.0,70,0.00,,,0.00,WUHU21023XXSP,2013-02-20 03:40:00,
2013-02-19 21:46:00,8.8,1.0,30.14,WNW,292,0.0,0.0,70,0.00,,,0.00,WUHU21023XXSP,2013-02-20 03:46:00,
2013-02-19 21:53:00,8.6,0.9,30.15,WNW,292,0.0,0.0,70,0.00,,,0.00,WUHU21023XXSP,2013-02-20 03:53:00,
2013-02-19 21:59:00,8.6,0.9,30.15,NW,315,0.0,0.0,70,0.00,,,0.00,WUHU21023XXSP,2013-02-20 03:59:00,
2013-02-19 22:05:00,8.4,0.7,30.15,WNW,292,0.0,0.0,70,0.00,,,0.00,WUHU21023XXSP,2013-02-20 04:05:00,
2013-02-19 22:12:00,8.4,0.7,30.15,WNW,292,0.0,0.0,70,0.00,,,0.00,WUHU21023XXSP,2013-02-20 04:12:00,
2013-02-19 22:18:00,8.4,0.7,30.15,WNW,292,0.0,0.0,70,0.00,,,0.00,WUHU21023XXSP,2013-02-20 04:18:00,
2013-02-19 22:25:00,8.4,0.7,30.15,NNW,337,0.0,0.0,70,0.00,,,0.00,WUHU21023XXSP,2013-02-20 04:25:00,
2013-02-19 22:31:00,8.4,0.7,30.16,WNW,292,0.0,0.0,70,0.00,,,0.00,WUHU21023XXSP,2013-02-20 04:31:00,
2013-02-19 22:38:00,8.4,0.7,30.16,WNW,292,0.0,0.0,70,0.00,,,0.00,WUHU21023XXSP,2013-02-20 04:38:00,
2013-02-19 22:44:00,8.4,0.7,30.16,WNW,292,0.0,0.0,70,0.00,,,0.00,WUHU21023XXSP,2013-02-20 04:44:00,
2013-02-19 22:50:00,8.2,0.5,30.16,WNW,292,0.0,0.0,70,0.00,,,0.00,WUHU21023XXSP,2013-02-20 04:50:00,
2013-02-19 22:57:00,8.2,0.5,30.17,WNW,292,0.0,0.0,70,0.00,,,0.00,WUHU21023XXSP,2013-02-20 04:57:00,
2013-02-19 23:01:00,8.1,0.3,30.17,WNW,292,0.0,0.0,70,0.00,,,0.00,WUHU21023XXSP,2013-02-20 05:01:00,
2013-02-19 23:03:00,8.1,0.3,30.17,WNW,292,0.0,0.0,70,0.00,,,0.00,WUHU21023XXSP,2013-02-20 05:03:00,
2013-02-19 23:10:00,8.1,0.3,30.17,WNW,292,0.0,0.0,70,0.00,,,0.00,WUHU21023XXSP,2013-02-20 05:10:00,
2013-02-19 23:14:00,8.1,0.3,30.17,NW,315,0.0,0.0,70,0.00,,,0.00,WUHU21023XXSP,2013-02-20 05:14:00,
2013-02-19 23:16:00,8.1,0.3,30.17,WNW,292,0.0,0.0,70,0.00,,,0.00,WUHU21023XXSP,2013-02-20 05:16:00,
2013-02-19 23:23:00,7.9,0.1,30.17,WNW,292,0.0,0.0,70,0.00,,,0.00,WUHU21023XXSP,2013-02-20 05:23:00,
2013-02-19 23:29:00,7.9,0.1,30.17,WNW,292,0.0,0.0,70,0.00,,,0.00,WUHU21023XXSP,2013-02-20 05:29:00,
2013-02-19 23:35:00,7.9,0.1,30.18,WNW,292,0.0,0.0,70,0.00,,,0.00,WUHU21023XXSP,2013-02-20 05:35:00,
2013-02-19 23:42:00,7.9,0.1,30.18,WNW,292,0.0,0.0,70,0.00,,,0.00,WUHU21023XXSP,2013-02-20 05:42:00,
2013-02-19 23:48:00,7.9,0.1,30.18,WNW,292,0.0,0.0,70,0.00,,,0.00,WUHU21023XXSP,2013-02-20 05:48:00,
2013-02-19 23:55:00,7.7,0.0,30.18,NW,315,0.0,0.0,70,0.00,,,0.00,WUHU21023XXSP,2013-02-20 05:55:00,